createdAt,value
2023-01-25T00:02:12.996Z,3.22
2023-01-25T00:04:39.648Z,2.97
2023-01-25T00:07:06.381Z,3.50
2023-01-25T00:09:32.972Z,2.88
2023-01-25T00:11:59.578Z,3.30
2023-01-25T00:14:26.244Z,3.67
2023-01-25T00:16:53.258Z,3.00
2023-01-25T00:19:20.103Z,2.97
2023-01-25T00:21:46.733Z,3.95
2023-01-25T00:24:14.621Z,3.42
2023-01-25T00:26:44.112Z,3.08
2023-01-25T00:29:14.276Z,3.55
2023-01-25T00:31:45.127Z,3.50
2023-01-25T00:34:26.692Z,3.75
2023-01-25T00:36:58.249Z,2.87
2023-01-25T00:39:27.040Z,3.30
2023-01-25T00:41:54.015Z,3.40
2023-01-25T00:44:20.816Z,2.60
2023-01-25T00:46:47.535Z,3.38
2023-01-25T00:49:28.349Z,3.60
2023-01-25T00:51:58.182Z,3.05
2023-01-25T00:54:25.442Z,3.72
2023-01-25T00:56:53.882Z,3.30
2023-01-25T00:59:21.170Z,3.10
2023-01-25T01:01:47.783Z,4.10
2023-01-25T01:04:14.738Z,3.08
2023-01-25T01:06:42.496Z,2.78
2023-01-25T01:09:14.018Z,2.85
2023-01-25T01:11:40.846Z,2.55
2023-01-25T01:14:07.834Z,2.75
2023-01-25T01:16:35.336Z,2.60
2023-01-25T01:19:02.165Z,2.85
2023-01-25T01:21:28.817Z,3.03
2023-01-25T01:23:56.217Z,3.28
2023-01-25T01:26:23.597Z,2.75
2023-01-25T01:28:50.535Z,2.70
2023-01-25T01:31:20.140Z,2.70
2023-01-25T01:33:55.028Z,3.15
2023-01-25T01:36:23.892Z,2.92
2023-01-25T01:38:50.793Z,2.97
2023-01-25T01:41:18.249Z,3.17
2023-01-25T01:43:45.218Z,2.58
2023-01-25T01:46:37.606Z,2.78
2023-01-25T01:49:21.258Z,3.25
2023-01-25T01:51:52.948Z,3.38
2023-01-25T01:54:25.957Z,2.60
2023-01-25T01:57:00.722Z,3.08
2023-01-25T01:59:34.332Z,3.17
2023-01-25T02:02:01.105Z,2.45
2023-01-25T02:04:28.466Z,2.40
2023-01-25T02:07:02.551Z,3.03
2023-01-25T02:09:32.173Z,2.40
2023-01-25T02:12:00.067Z,2.58
2023-01-25T02:14:29.337Z,2.55
2023-01-25T02:16:56.579Z,2.95
2023-01-25T02:20:00.874Z,2.83
2023-01-25T02:22:44.396Z,2.63
2023-01-25T02:25:13.382Z,2.80
2023-01-25T02:27:48.745Z,2.60
2023-01-25T02:30:15.518Z,2.95
2023-01-25T02:32:42.112Z,2.60
2023-01-25T02:35:19.322Z,2.30
2023-01-25T02:37:46.647Z,3.10
2023-01-25T02:40:13.321Z,2.85
2023-01-25T02:42:43.908Z,2.50
2023-01-25T02:45:15.039Z,1.98
2023-01-25T02:47:41.646Z,2.83
2023-01-25T02:50:09.132Z,2.08
2023-01-25T02:52:35.706Z,2.80
2023-01-25T02:55:02.312Z,2.45
2023-01-25T02:57:28.963Z,2.95
2023-01-25T02:59:55.621Z,2.80
2023-01-25T03:02:22.582Z,2.40
2023-01-25T03:04:49.149Z,2.35
2023-01-25T03:07:15.757Z,2.72
2023-01-25T03:09:42.416Z,2.45
2023-01-25T03:12:09.011Z,2.22
2023-01-25T03:14:35.605Z,2.42
2023-01-25T03:17:02.193Z,2.63
2023-01-25T03:19:28.884Z,2.58
2023-01-25T03:21:55.471Z,2.88
2023-01-25T03:24:22.165Z,2.50
2023-01-25T03:27:07.314Z,3.00
2023-01-25T03:29:33.964Z,2.95
2023-01-25T03:32:00.650Z,2.40
2023-01-25T03:34:27.395Z,2.03
2023-01-25T03:36:54.109Z,2.10
2023-01-25T03:39:20.843Z,2.13
2023-01-25T03:41:47.650Z,2.67
2023-01-25T03:44:14.311Z,1.95
2023-01-25T03:46:41.822Z,2.55
2023-01-25T03:49:09.624Z,2.83
2023-01-25T03:51:36.431Z,2.45
2023-01-25T03:54:03.306Z,2.83
2023-01-25T03:56:29.930Z,2.13
2023-01-25T03:58:56.585Z,3.10
2023-01-25T04:01:23.318Z,2.25
2023-01-25T04:03:49.948Z,1.88
2023-01-25T04:06:16.560Z,2.25
2023-01-25T04:08:43.263Z,2.40
2023-01-25T04:11:10.604Z,2.30
2023-01-25T04:13:38.343Z,3.00
2023-01-25T04:16:07.197Z,1.83
2023-01-25T04:18:34.158Z,2.17
2023-01-25T04:21:01.021Z,2.42
2023-01-25T04:23:27.615Z,2.17
2023-01-25T04:25:56.771Z,2.80
2023-01-25T04:28:24.226Z,2.40
2023-01-25T04:30:51.190Z,2.92
2023-01-25T04:33:17.862Z,2.83
2023-01-25T04:35:45.006Z,2.30
2023-01-25T04:38:12.434Z,2.25
2023-01-25T04:40:39.787Z,2.08
2023-01-25T04:43:06.604Z,2.83
2023-01-25T04:45:33.710Z,2.55
2023-01-25T04:48:05.449Z,2.20
2023-01-25T04:50:32.204Z,2.88
2023-01-25T04:52:58.790Z,2.78
2023-01-25T04:55:25.407Z,2.42
2023-01-25T04:57:52.104Z,2.90
2023-01-25T05:00:19.486Z,3.83
2023-01-25T05:02:46.252Z,2.75
2023-01-25T05:05:13.204Z,2.40
2023-01-25T05:07:39.984Z,1.75
2023-01-25T05:10:07.770Z,3.05
2023-01-25T05:12:34.443Z,2.60
2023-01-25T05:15:01.040Z,2.63
2023-01-25T05:17:27.611Z,2.30
2023-01-25T05:19:54.248Z,2.70
2023-01-25T05:22:21.122Z,2.55
2023-01-25T05:24:48.714Z,2.50
2023-01-25T05:27:17.729Z,2.95
2023-01-25T05:29:45.630Z,2.85
2023-01-25T05:32:17.753Z,3.00
2023-01-25T05:34:45.117Z,2.88
2023-01-25T05:37:15.491Z,3.35
2023-01-25T05:39:42.134Z,2.72
2023-01-25T05:42:14.515Z,3.42
2023-01-25T05:44:41.330Z,4.63
2023-01-25T05:47:12.771Z,3.67
2023-01-25T05:49:39.492Z,3.22
2023-01-25T05:52:06.138Z,3.90
2023-01-25T05:54:32.793Z,3.67
2023-01-25T05:57:00.201Z,3.53
2023-01-25T05:59:26.888Z,3.33
2023-01-25T06:01:53.487Z,3.00
2023-01-25T06:04:20.101Z,3.22
2023-01-25T06:06:46.759Z,2.75
2023-01-25T06:09:13.732Z,2.78
2023-01-25T06:11:44.919Z,3.58
2023-01-25T06:14:11.990Z,3.53
2023-01-25T06:16:38.666Z,3.45
2023-01-25T06:19:06.619Z,3.78
2023-01-25T06:21:37.190Z,3.50
2023-01-25T06:24:06.938Z,7.07
2023-01-25T06:26:33.719Z,7.03
2023-01-25T06:29:00.327Z,8.82
2023-01-25T06:31:27.034Z,5.95
2023-01-25T06:33:53.857Z,7.03
2023-01-25T06:36:21.847Z,9.02
2023-01-25T06:38:50.857Z,4.78
2023-01-25T06:41:18.396Z,4.70
2023-01-25T06:43:47.123Z,5.20
2023-01-25T06:46:14.185Z,5.93
2023-01-25T06:48:43.003Z,3.75
2023-01-25T06:51:12.268Z,3.72
2023-01-25T06:53:41.501Z,4.78
2023-01-25T06:56:22.568Z,4.50
2023-01-25T06:58:49.785Z,3.70
2023-01-25T07:01:27.221Z,4.32
2023-01-25T07:04:03.033Z,4.30
2023-01-25T07:06:35.101Z,4.72
2023-01-25T07:09:23.889Z,5.47
2023-01-25T07:12:12.190Z,7.78
2023-01-25T07:14:39.130Z,7.55
2023-01-25T07:17:05.867Z,7.15
2023-01-25T07:19:32.629Z,4.32
2023-01-25T07:22:02.156Z,5.25
2023-01-25T07:24:29.770Z,5.90
2023-01-25T07:26:56.574Z,8.07
2023-01-25T07:29:23.529Z,8.80
2023-01-25T07:31:50.255Z,10.90
2023-01-25T07:34:21.769Z,9.43
2023-01-25T07:36:48.368Z,9.35
2023-01-25T07:39:15.345Z,7.43
2023-01-25T07:41:41.991Z,9.18
2023-01-25T07:44:10.725Z,8.73
2023-01-25T07:46:37.805Z,8.30
2023-01-25T07:49:04.424Z,12.68
2023-01-25T07:51:31.615Z,7.10
2023-01-25T07:54:03.268Z,8.00
2023-01-25T07:56:32.345Z,9.65
2023-01-25T07:59:02.571Z,7.63
2023-01-25T08:01:32.399Z,6.78
2023-01-25T08:03:59.698Z,7.28
2023-01-25T08:06:30.883Z,7.65
2023-01-25T08:08:58.666Z,8.50
2023-01-25T08:11:30.466Z,6.47
2023-01-25T08:14:03.309Z,9.60
2023-01-25T08:16:32.006Z,7.63
2023-01-25T08:19:01.030Z,7.43
2023-01-25T08:21:31.492Z,7.65
2023-01-25T08:24:00.030Z,9.00
2023-01-25T08:26:27.709Z,12.30
2023-01-25T08:28:54.553Z,9.50
2023-01-25T08:31:24.904Z,7.53
2023-01-25T08:33:52.142Z,7.72
2023-01-25T08:36:20.264Z,6.35
2023-01-25T08:38:48.189Z,6.47
2023-01-25T08:41:18.372Z,6.57
2023-01-25T08:43:45.990Z,7.03
2023-01-25T08:46:15.615Z,9.90
2023-01-25T08:48:42.268Z,9.88
2023-01-25T08:51:11.831Z,9.60
2023-01-25T08:53:38.653Z,12.70
2023-01-25T08:56:07.651Z,11.10
2023-01-25T08:58:35.395Z,7.38
2023-01-25T09:01:09.083Z,17.23
2023-01-25T09:03:41.220Z,13.82
2023-01-25T09:06:09.126Z,11.40
2023-01-25T09:08:38.148Z,7.28
2023-01-25T09:11:11.649Z,6.28
2023-01-25T09:13:38.305Z,6.97
2023-01-25T09:16:10.322Z,9.15
2023-01-25T09:18:39.970Z,16.63
2023-01-25T09:21:12.144Z,7.82
2023-01-25T09:23:50.531Z,9.15
2023-01-25T09:26:24.525Z,6.13
2023-01-25T09:28:53.085Z,10.35
2023-01-25T09:31:23.250Z,6.78
2023-01-25T09:33:52.216Z,12.10
2023-01-25T09:36:19.330Z,7.32
2023-01-25T09:38:46.077Z,6.82
2023-01-25T09:41:31.573Z,6.93
2023-01-25T09:44:00.195Z,7.20
2023-01-25T09:46:50.212Z,6.20
2023-01-25T09:49:42.783Z,6.55
2023-01-25T09:54:59.627Z,8.82
2023-01-25T09:57:36.979Z,7.15
2023-01-25T10:00:19.271Z,8.85
2023-01-25T10:03:04.503Z,7.65
2023-01-25T10:05:37.315Z,7.63
2023-01-25T10:08:12.022Z,6.97
2023-01-25T10:10:42.262Z,13.43
2023-01-25T10:13:14.191Z,9.00
2023-01-25T10:15:46.321Z,15.23
2023-01-25T10:18:27.675Z,13.45
2023-01-25T10:21:01.686Z,12.25
2023-01-25T10:23:43.196Z,14.90
2023-01-25T10:26:30.103Z,17.42
2023-01-25T10:29:10.956Z,9.50
2023-01-25T10:31:46.588Z,6.57
2023-01-25T10:34:22.380Z,6.85
2023-01-25T10:36:54.534Z,6.55
2023-01-25T10:39:21.903Z,5.95
2023-01-25T10:41:54.143Z,5.80
2023-01-25T10:46:56.725Z,4.45
2023-01-25T10:49:52.106Z,5.72
2023-01-25T10:52:27.072Z,5.72
2023-01-25T10:55:08.202Z,5.45
2023-01-25T10:57:36.321Z,7.25
2023-01-25T11:00:10.604Z,6.25
2023-01-25T11:02:45.943Z,6.43
2023-01-25T11:05:18.839Z,4.65
2023-01-25T11:07:49.160Z,4.63
2023-01-25T11:10:27.820Z,5.50
2023-01-25T11:13:16.364Z,6.25
2023-01-25T11:15:45.381Z,3.17
2023-01-25T11:18:25.336Z,5.20
2023-01-25T11:21:14.991Z,5.32
2023-01-25T11:23:41.947Z,5.57
2023-01-25T11:26:13.461Z,3.90
2023-01-25T11:28:40.426Z,4.70
2023-01-25T11:31:15.055Z,3.45
2023-01-25T11:33:42.317Z,4.90
2023-01-25T11:36:26.431Z,5.72
2023-01-25T11:39:03.507Z,5.07
2023-01-25T11:41:48.475Z,4.00
2023-01-25T11:44:51.780Z,3.38
2023-01-25T11:48:15.571Z,4.72
2023-01-25T11:50:50.993Z,4.10
2023-01-25T11:53:26.868Z,4.72
2023-01-25T11:56:14.927Z,3.83
2023-01-25T11:58:41.490Z,3.75
2023-01-25T12:01:20.901Z,4.05
2023-01-25T12:04:09.306Z,3.45
2023-01-25T12:06:50.008Z,5.18
2023-01-25T12:09:29.041Z,3.88
2023-01-25T12:12:10.809Z,4.72
2023-01-25T12:14:40.355Z,3.60
2023-01-25T12:17:28.090Z,3.90
2023-01-25T12:20:07.464Z,4.55
2023-01-25T12:22:52.601Z,2.88
2023-01-25T12:25:33.899Z,3.78
2023-01-25T12:28:13.090Z,3.85
2023-01-25T12:30:48.769Z,3.58
2023-01-25T12:33:22.714Z,4.18
2023-01-25T12:36:00.120Z,5.57
2023-01-25T12:38:49.629Z,5.82
2023-01-25T12:41:28.432Z,5.20
2023-01-25T12:44:13.151Z,4.35
2023-01-25T12:46:52.809Z,3.72
2023-01-25T12:49:37.397Z,4.13
2023-01-25T12:52:22.162Z,3.88
2023-01-25T12:54:51.017Z,3.80
2023-01-25T12:57:36.070Z,5.65
2023-01-25T13:00:09.988Z,5.75
2023-01-25T13:03:06.171Z,11.57
2023-01-25T13:05:41.096Z,4.90
2023-01-25T13:08:32.163Z,4.28
2023-01-25T13:11:19.408Z,5.13
2023-01-25T13:13:46.179Z,4.85
2023-01-25T13:16:36.810Z,4.35
2023-01-25T13:19:03.847Z,4.55
2023-01-25T13:21:46.567Z,6.03
2023-01-25T13:24:24.083Z,6.75
2023-01-25T13:26:54.222Z,5.65
2023-01-25T13:29:35.801Z,6.72
2023-01-25T13:32:04.189Z,7.23
2023-01-25T13:34:38.207Z,7.22
2023-01-25T13:37:22.947Z,5.22
2023-01-25T13:39:54.661Z,5.50
2023-01-25T13:42:22.817Z,7.55
2023-01-25T13:44:59.248Z,6.97
2023-01-25T13:47:30.009Z,5.32
2023-01-25T13:50:14.660Z,6.47
2023-01-25T13:52:58.567Z,6.50
2023-01-25T13:55:25.946Z,6.90
2023-01-25T13:57:54.661Z,6.63
2023-01-25T14:00:21.839Z,6.95
2023-01-25T14:02:55.103Z,6.35
2023-01-25T14:05:24.887Z,13.20
2023-01-25T14:07:54.482Z,9.80
2023-01-25T14:10:27.926Z,6.53
2023-01-25T14:13:00.210Z,8.05
2023-01-25T14:18:34.431Z,11.63
2023-01-25T14:21:20.371Z,5.75
2023-01-25T14:23:48.689Z,6.43
2023-01-25T14:26:25.023Z,7.38
2023-01-25T14:29:01.383Z,8.45
2023-01-25T14:31:34.651Z,7.75
2023-01-25T14:36:34.489Z,8.15
2023-01-25T14:39:03.228Z,5.78
2023-01-25T14:41:38.825Z,5.45
2023-01-25T14:44:12.978Z,8.32
2023-01-25T14:46:40.798Z,7.38
2023-01-25T14:49:13.505Z,8.80
2023-01-25T14:51:49.772Z,7.60
2023-01-25T14:54:21.057Z,7.13
2023-01-25T14:56:50.713Z,4.82
2023-01-25T14:59:28.751Z,7.38
2023-01-25T15:01:58.848Z,6.30
2023-01-25T15:04:25.537Z,4.47
2023-01-25T15:06:55.194Z,7.97
2023-01-25T15:09:38.304Z,5.80
2023-01-25T15:12:24.971Z,6.18
2023-01-25T15:14:53.889Z,9.32
2023-01-25T15:17:36.745Z,6.88
2023-01-25T15:20:04.112Z,7.95
2023-01-25T15:22:30.856Z,7.88
2023-01-25T15:24:58.709Z,5.88
2023-01-25T15:27:25.379Z,8.68
2023-01-25T15:29:52.136Z,8.95
2023-01-25T15:32:21.147Z,5.65
2023-01-25T15:34:48.402Z,9.90
2023-01-25T15:37:15.068Z,4.53
2023-01-25T15:39:42.119Z,4.38
2023-01-25T15:42:09.293Z,6.47
2023-01-25T15:44:35.900Z,14.65
2023-01-25T15:47:02.565Z,3.88
2023-01-25T15:49:31.722Z,4.53
2023-01-25T15:51:58.784Z,4.72
2023-01-25T15:54:26.419Z,5.35
2023-01-25T15:56:56.548Z,4.95
2023-01-25T15:59:23.380Z,5.10
2023-01-25T16:01:50.051Z,5.32
2023-01-25T16:04:16.877Z,4.88
2023-01-25T16:06:48.526Z,3.33
2023-01-25T16:09:15.219Z,3.47
2023-01-25T16:11:42.064Z,5.00
2023-01-25T16:14:08.686Z,4.50
2023-01-25T16:16:40.568Z,4.68
2023-01-25T16:19:07.430Z,5.18
2023-01-25T16:21:34.022Z,4.25
2023-01-25T16:24:00.826Z,3.30
2023-01-25T16:26:28.889Z,3.13
2023-01-25T16:28:55.784Z,3.85
2023-01-25T16:31:32.379Z,5.20
2023-01-25T16:33:59.865Z,3.22
2023-01-25T16:36:26.731Z,3.92
2023-01-25T16:38:53.360Z,3.80
2023-01-25T16:41:20.071Z,3.40
2023-01-25T16:43:48.342Z,4.65
2023-01-25T16:46:23.408Z,4.05
2023-01-25T16:48:55.238Z,3.33
2023-01-25T16:51:25.079Z,4.28
2023-01-25T16:53:55.556Z,3.60
2023-01-25T16:56:24.717Z,4.68
2023-01-25T16:58:52.173Z,4.35
2023-01-25T17:01:20.437Z,3.42
2023-01-25T17:03:48.455Z,3.33
2023-01-25T17:06:29.512Z,4.20
2023-01-25T17:09:00.307Z,4.63
2023-01-25T17:11:27.634Z,4.20
2023-01-25T17:13:56.920Z,8.13
2023-01-25T17:16:25.756Z,6.32
2023-01-25T17:19:02.782Z,4.22
2023-01-25T17:21:29.604Z,4.00
2023-01-25T17:23:58.053Z,12.57
2023-01-25T17:26:25.414Z,4.38
2023-01-25T17:28:52.602Z,4.60
2023-01-25T17:31:22.432Z,3.80
2023-01-25T17:33:49.976Z,4.28
2023-01-25T17:36:17.038Z,4.38
2023-01-25T17:38:44.214Z,3.63
2023-01-25T17:41:13.608Z,2.60
2023-01-25T17:43:40.479Z,3.33
2023-01-25T17:46:14.746Z,4.45
2023-01-25T17:48:41.777Z,3.33
2023-01-25T17:51:08.646Z,3.80
2023-01-25T17:53:35.550Z,3.53
2023-01-25T17:56:04.589Z,3.88
2023-01-25T17:58:34.379Z,3.20
2023-01-25T18:01:13.103Z,3.78
2023-01-25T18:03:42.184Z,3.00
2023-01-25T18:06:09.759Z,3.75
2023-01-25T18:08:48.263Z,4.22
2023-01-25T18:11:18.501Z,4.93
2023-01-25T18:13:48.076Z,6.18
2023-01-25T18:16:15.877Z,4.80
2023-01-25T18:18:43.983Z,4.40
2023-01-25T18:21:13.245Z,5.10
2023-01-25T18:23:41.459Z,4.90
2023-01-25T18:26:17.631Z,4.18
2023-01-25T18:28:44.734Z,5.10
2023-01-25T18:31:15.816Z,5.00
2023-01-25T18:33:42.659Z,4.60
2023-01-25T18:36:13.689Z,4.18
2023-01-25T18:38:40.607Z,4.03
2023-01-25T18:41:08.217Z,5.10
2023-01-25T18:43:35.349Z,5.18
2023-01-25T18:46:02.780Z,5.15
2023-01-25T18:48:32.633Z,6.90
2023-01-25T18:51:12.900Z,7.80
2023-01-25T18:53:41.605Z,8.63
2023-01-25T18:56:19.462Z,10.85
2023-01-25T18:58:46.737Z,9.98
2023-01-25T19:01:16.030Z,10.05
2023-01-25T19:03:44.108Z,6.63
2023-01-25T19:06:11.021Z,7.80
2023-01-25T19:08:41.597Z,7.18
2023-01-25T19:11:11.379Z,6.78
2023-01-25T19:13:39.659Z,7.15
2023-01-25T19:16:10.682Z,7.30
2023-01-25T19:18:41.287Z,6.85
2023-01-25T19:21:10.454Z,5.80
2023-01-25T19:23:39.528Z,6.80
2023-01-25T19:26:08.409Z,7.45
2023-01-25T19:28:35.411Z,5.03
2023-01-25T19:31:11.179Z,9.30
2023-01-25T19:33:38.637Z,9.73
2023-01-25T19:36:07.303Z,6.70
2023-01-25T19:38:38.649Z,5.47
2023-01-25T19:41:07.911Z,6.17
2023-01-25T19:43:34.655Z,8.38
2023-01-25T19:46:20.506Z,8.90
2023-01-25T19:48:50.185Z,8.00
2023-01-25T19:51:25.071Z,7.35
2023-01-25T19:54:03.445Z,8.23
2023-01-25T19:56:39.577Z,8.50
2023-01-25T19:59:12.364Z,8.35
2023-01-25T20:01:44.044Z,9.07
2023-01-25T20:04:16.151Z,7.45
2023-01-25T20:06:42.897Z,10.23
2023-01-25T20:09:12.834Z,8.50
2023-01-25T20:11:39.914Z,10.05
2023-01-25T20:14:07.153Z,11.00
2023-01-25T20:16:35.112Z,9.07
2023-01-25T20:19:02.736Z,8.07
2023-01-25T20:21:31.401Z,9.23
2023-01-25T20:24:02.688Z,9.55
2023-01-25T20:26:32.504Z,8.73
2023-01-25T20:29:00.115Z,8.50
2023-01-25T20:31:30.352Z,8.68
2023-01-25T20:33:59.559Z,10.43
2023-01-25T20:36:28.767Z,9.90
2023-01-25T20:38:56.364Z,10.05
2023-01-25T20:41:23.793Z,11.18
2023-01-25T20:44:02.271Z,8.38
2023-01-25T20:46:29.802Z,9.00
2023-01-25T20:48:56.524Z,8.43
2023-01-25T20:51:24.003Z,9.00
2023-01-25T20:53:50.839Z,9.90
2023-01-25T20:56:18.970Z,10.70
2023-01-25T20:58:50.656Z,9.10
2023-01-25T21:01:21.165Z,10.45
2023-01-25T21:03:48.415Z,12.43
2023-01-25T21:06:16.504Z,9.02
2023-01-25T21:08:43.722Z,10.60
2023-01-25T21:11:11.497Z,12.13
2023-01-25T21:13:38.213Z,8.70
2023-01-25T21:18:58.383Z,11.68
2023-01-25T21:21:38.538Z,10.55
2023-01-25T21:24:05.943Z,12.55
2023-01-25T21:26:34.460Z,16.83
2023-01-25T21:29:02.366Z,14.02
2023-01-25T21:31:32.954Z,11.55
2023-01-25T21:34:00.381Z,13.10
2023-01-25T21:36:27.599Z,12.18
2023-01-25T21:39:01.306Z,15.55
2023-01-25T21:41:31.941Z,11.20
2023-01-25T21:44:19.164Z,10.50
2023-01-25T21:47:06.004Z,10.88
2023-01-25T21:49:51.990Z,10.80
2023-01-25T21:52:18.577Z,8.82
2023-01-25T21:54:45.158Z,9.90
2023-01-25T21:57:11.808Z,10.68
2023-01-25T21:59:40.822Z,10.30
2023-01-25T22:02:13.565Z,10.32
2023-01-25T22:04:40.248Z,10.90
2023-01-25T22:07:08.928Z,9.20
2023-01-25T22:09:36.059Z,11.57
2023-01-25T22:12:08.749Z,9.20
2023-01-25T22:14:35.488Z,8.68
2023-01-25T22:17:03.224Z,8.23
2023-01-25T22:19:29.976Z,7.30
2023-01-25T22:21:56.575Z,5.65
2023-01-25T22:24:23.360Z,8.05
2023-01-25T22:27:08.458Z,6.93
2023-01-25T22:29:35.234Z,5.85
2023-01-25T22:32:02.553Z,8.25
2023-01-25T22:34:29.175Z,6.32
2023-01-25T22:36:55.833Z,7.40
2023-01-25T22:39:22.554Z,8.07
2023-01-25T22:41:49.205Z,6.90
2023-01-25T22:44:16.719Z,5.55
2023-01-25T22:46:43.434Z,6.10
2023-01-25T22:49:10.066Z,6.72
2023-01-25T22:51:36.670Z,5.93
2023-01-25T22:54:03.396Z,3.25
2023-01-25T22:56:32.227Z,6.65
2023-01-25T22:59:00.022Z,5.90
2023-01-25T23:01:29.846Z,4.30
2023-01-25T23:03:57.255Z,5.63
2023-01-25T23:06:29.850Z,5.78
2023-01-25T23:08:59.969Z,5.78
2023-01-25T23:11:32.323Z,5.10
2023-01-25T23:14:18.125Z,6.53
2023-01-25T23:16:45.064Z,5.38
2023-01-25T23:19:13.078Z,7.00
2023-01-25T23:21:41.232Z,5.57
2023-01-25T23:24:08.843Z,6.40
2023-01-25T23:26:41.049Z,5.55
2023-01-25T23:29:12.296Z,7.13
2023-01-25T23:31:39.153Z,6.90
2023-01-25T23:34:06.989Z,6.40
2023-01-25T23:36:36.160Z,6.78
2023-01-25T23:39:02.999Z,5.40
2023-01-25T23:41:30.653Z,7.45
2023-01-25T23:43:58.051Z,7.57
2023-01-25T23:46:25.613Z,8.52
2023-01-25T23:48:52.551Z,7.45
2023-01-25T23:51:19.954Z,7.75
2023-01-25T23:53:47.028Z,6.80
2023-01-25T23:56:17.129Z,5.38
2023-01-25T23:58:44.761Z,7.20
